sensor_id;sensor_type;location;lat;lon;timestamp;pressure;altitude;pressure_sealevel;temperature;humidity
23241;BME280;11789;53.482;9.862;2023-04-27T00:00:11;101989.75;;;3.46;97.21
23241;BME280;11789;53.482;9.862;2023-04-27T00:02:37;101981.47;;;3.33;97.47
23241;BME280;11789;53.482;9.862;2023-04-27T00:05:04;101990.91;;;3.34;97.47
23241;BME280;11789;53.482;9.862;2023-04-27T00:07:30;101981.75;;;3.39;98.28
23241;BME280;11789;53.482;9.862;2023-04-27T00:09:55;101986.59;;;3.33;97.98
23241;BME280;11789;53.482;9.862;2023-04-27T00:12:21;101984.84;;;3.32;97.85
23241;BME280;11789;53.482;9.862;2023-04-27T00:14:47;101971.91;;;3.29;98.21
23241;BME280;11789;53.482;9.862;2023-04-27T00:17:12;101979.47;;;3.26;98.32
23241;BME280;11789;53.482;9.862;2023-04-27T00:19:37;101973.00;;;3.34;98.02
23241;BME280;11789;53.482;9.862;2023-04-27T00:22:07;101978.50;;;3.24;97.60
23241;BME280;11789;53.482;9.862;2023-04-27T00:24:33;101979.88;;;3.18;97.42
23241;BME280;11789;53.482;9.862;2023-04-27T00:26:58;101973.25;;;3.21;98.09
23241;BME280;11789;53.482;9.862;2023-04-27T00:29:23;101977.56;;;3.22;98.50
23241;BME280;11789;53.482;9.862;2023-04-27T00:31:49;101972.44;;;3.22;98.37
23241;BME280;11789;53.482;9.862;2023-04-27T00:34:14;101967.88;;;3.15;98.34
23241;BME280;11789;53.482;9.862;2023-04-27T00:36:40;101967.06;;;3.16;98.14
23241;BME280;11789;53.482;9.862;2023-04-27T00:39:06;101966.78;;;3.10;98.23
23241;BME280;11789;53.482;9.862;2023-04-27T00:41:31;101961.66;;;3.10;98.27
23241;BME280;11789;53.482;9.862;2023-04-27T00:43:57;101965.16;;;3.12;98.84
23241;BME280;11789;53.482;9.862;2023-04-27T00:46:23;101971.06;;;3.11;98.77
23241;BME280;11789;53.482;9.862;2023-04-27T00:48:49;101973.47;;;3.08;99.00
23241;BME280;11789;53.482;9.862;2023-04-27T00:51:14;101976.47;;;3.17;99.03
23241;BME280;11789;53.482;9.862;2023-04-27T00:53:43;101973.38;;;3.24;98.17
23241;BME280;11789;53.482;9.862;2023-04-27T00:56:09;101976.47;;;3.17;98.26
23241;BME280;11789;53.482;9.862;2023-04-27T00:58:35;101981.63;;;3.19;97.89
23241;BME280;11789;53.482;9.862;2023-04-27T01:01:00;101987.50;;;3.16;97.78
23241;BME280;11789;53.482;9.862;2023-04-27T01:03:26;101983.91;;;3.12;98.42
23241;BME280;11789;53.482;9.862;2023-04-27T01:05:51;101982.75;;;3.06;98.65
23241;BME280;11789;53.482;9.862;2023-04-27T01:08:17;101989.44;;;3.04;98.65
23241;BME280;11789;53.482;9.862;2023-04-27T01:10:42;101992.81;;;3.03;99.03
23241;BME280;11789;53.482;9.862;2023-04-27T01:13:08;101988.44;;;3.00;99.03
23241;BME280;11789;53.482;9.862;2023-04-27T01:15:33;101988.88;;;2.92;99.02
23241;BME280;11789;53.482;9.862;2023-04-27T01:18:00;101987.62;;;2.83;98.92
23241;BME280;11789;53.482;9.862;2023-04-27T01:20:26;101983.41;;;2.84;99.64
23241;BME280;11789;53.482;9.862;2023-04-27T01:22:58;101985.28;;;2.88;99.80
23241;BME280;11789;53.482;9.862;2023-04-27T01:25:24;101987.78;;;2.86;99.56
23241;BME280;11789;53.482;9.862;2023-04-27T01:27:50;101984.72;;;2.76;99.38
23241;BME280;11789;53.482;9.862;2023-04-27T01:30:15;101994.97;;;2.77;99.78
23241;BME280;11789;53.482;9.862;2023-04-27T01:32:41;101998.06;;;2.70;99.96
23241;BME280;11789;53.482;9.862;2023-04-27T01:35:07;101996.59;;;2.75;99.91
23241;BME280;11789;53.482;9.862;2023-04-27T01:37:33;101997.25;;;2.71;99.38
23241;BME280;11789;53.482;9.862;2023-04-27T01:39:59;102000.03;;;2.76;98.95
23241;BME280;11789;53.482;9.862;2023-04-27T01:42:24;102003.97;;;2.69;99.36
23241;BME280;11789;53.482;9.862;2023-04-27T01:44:50;102004.59;;;2.65;99.31
23241;BME280;11789;53.482;9.862;2023-04-27T01:47:15;102007.09;;;2.64;99.57
23241;BME280;11789;53.482;9.862;2023-04-27T01:49:41;102002.28;;;2.70;99.46
23241;BME280;11789;53.482;9.862;2023-04-27T01:52:07;102012.41;;;2.68;99.68
23241;BME280;11789;53.482;9.862;2023-04-27T01:54:32;102020.28;;;2.73;99.20
23241;BME280;11789;53.482;9.862;2023-04-27T01:56:58;102017.16;;;2.78;99.05
23241;BME280;11789;53.482;9.862;2023-04-27T01:59:23;102015.00;;;2.86;99.17
23241;BME280;11789;53.482;9.862;2023-04-27T02:01:50;102023.72;;;2.73;99.18
23241;BME280;11789;53.482;9.862;2023-04-27T02:04:15;102022.59;;;2.68;99.47
23241;BME280;11789;53.482;9.862;2023-04-27T02:06:41;102027.38;;;2.78;99.33
23241;BME280;11789;53.482;9.862;2023-04-27T02:09:06;102032.66;;;2.81;99.41
23241;BME280;11789;53.482;9.862;2023-04-27T02:11:31;102042.94;;;2.83;98.94
23241;BME280;11789;53.482;9.862;2023-04-27T02:13:57;102048.91;;;2.83;98.31
23241;BME280;11789;53.482;9.862;2023-04-27T02:16:22;102048.13;;;2.68;99.01
23241;BME280;11789;53.482;9.862;2023-04-27T02:18:48;102056.78;;;2.70;99.06
23241;BME280;11789;53.482;9.862;2023-04-27T02:21:13;102054.69;;;2.79;98.63
23241;BME280;11789;53.482;9.862;2023-04-27T02:23:39;102060.56;;;2.78;98.75
23241;BME280;11789;53.482;9.862;2023-04-27T02:26:04;102052.25;;;2.65;98.94
23241;BME280;11789;53.482;9.862;2023-04-27T02:28:30;102056.13;;;2.58;99.58
23241;BME280;11789;53.482;9.862;2023-04-27T02:30:56;102052.72;;;2.57;100.00
23241;BME280;11789;53.482;9.862;2023-04-27T02:33:22;102052.47;;;2.53;100.00
23241;BME280;11789;53.482;9.862;2023-04-27T02:35:48;102057.25;;;2.63;100.00
23241;BME280;11789;53.482;9.862;2023-04-27T02:38:13;102046.69;;;2.73;100.00
23241;BME280;11789;53.482;9.862;2023-04-27T02:40:39;102045.81;;;2.73;100.00
23241;BME280;11789;53.482;9.862;2023-04-27T02:43:04;102040.47;;;2.68;100.00
23241;BME280;11789;53.482;9.862;2023-04-27T02:45:29;102042.09;;;2.66;100.00
23241;BME280;11789;53.482;9.862;2023-04-27T02:47:55;102042.72;;;2.62;100.00
23241;BME280;11789;53.482;9.862;2023-04-27T02:50:21;102044.41;;;2.62;100.00
23241;BME280;11789;53.482;9.862;2023-04-27T02:52:46;102040.41;;;2.67;100.00
23241;BME280;11789;53.482;9.862;2023-04-27T02:55:12;102044.81;;;2.69;100.00
23241;BME280;11789;53.482;9.862;2023-04-27T02:57:39;102049.44;;;2.60;100.00
23241;BME280;11789;53.482;9.862;2023-04-27T03:00:06;102052.72;;;2.57;100.00
23241;BME280;11789;53.482;9.862;2023-04-27T03:02:33;102043.06;;;2.52;100.00
23241;BME280;11789;53.482;9.862;2023-04-27T03:04:58;102049.28;;;2.57;100.00
23241;BME280;11789;53.482;9.862;2023-04-27T03:07:24;102048.34;;;2.55;100.00
23241;BME280;11789;53.482;9.862;2023-04-27T03:09:49;102045.22;;;2.60;100.00
23241;BME280;11789;53.482;9.862;2023-04-27T03:12:15;102050.91;;;2.55;100.00
23241;BME280;11789;53.482;9.862;2023-04-27T03:14:40;102041.31;;;2.51;100.00
23241;BME280;11789;53.482;9.862;2023-04-27T03:17:06;102043.56;;;2.45;100.00
23241;BME280;11789;53.482;9.862;2023-04-27T03:19:31;102042.69;;;2.44;100.00
23241;BME280;11789;53.482;9.862;2023-04-27T03:21:57;102041.81;;;2.44;100.00
23241;BME280;11789;53.482;9.862;2023-04-27T03:24:22;102036.72;;;2.44;100.00
23241;BME280;11789;53.482;9.862;2023-04-27T03:26:50;102039.09;;;2.41;100.00
23241;BME280;11789;53.482;9.862;2023-04-27T03:29:15;102044.22;;;2.41;100.00
23241;BME280;11789;53.482;9.862;2023-04-27T03:31:41;102049.47;;;2.44;100.00
23241;BME280;11789;53.482;9.862;2023-04-27T03:34:06;102048.03;;;2.49;100.00
23241;BME280;11789;53.482;9.862;2023-04-27T03:36:32;102042.25;;;2.53;100.00
23241;BME280;11789;53.482;9.862;2023-04-27T03:38:57;102046.91;;;2.60;100.00
23241;BME280;11789;53.482;9.862;2023-04-27T03:41:22;102048.72;;;2.63;100.00
23241;BME280;11789;53.482;9.862;2023-04-27T03:43:48;102046.66;;;2.55;100.00
23241;BME280;11789;53.482;9.862;2023-04-27T03:46:15;102048.47;;;2.58;100.00
23241;BME280;11789;53.482;9.862;2023-04-27T03:48:40;102049.59;;;2.63;100.00
23241;BME280;11789;53.482;9.862;2023-04-27T03:51:08;102055.97;;;2.71;100.00
23241;BME280;11789;53.482;9.862;2023-04-27T03:53:33;102065.53;;;2.75;100.00
23241;BME280;11789;53.482;9.862;2023-04-27T03:56:00;102063.28;;;2.81;100.00
23241;BME280;11789;53.482;9.862;2023-04-27T03:58:26;102076.88;;;2.80;100.00
23241;BME280;11789;53.482;9.862;2023-04-27T04:00:51;102066.88;;;2.85;100.00
23241;BME280;11789;53.482;9.862;2023-04-27T04:03:18;102068.56;;;2.84;100.00
23241;BME280;11789;53.482;9.862;2023-04-27T04:05:44;102053.81;;;2.63;100.00
23241;BME280;11789;53.482;9.862;2023-04-27T04:08:12;102054.25;;;2.54;100.00
23241;BME280;11789;53.482;9.862;2023-04-27T04:10:38;102048.47;;;2.58;100.00
23241;BME280;11789;53.482;9.862;2023-04-27T04:13:03;102057.41;;;2.66;100.00
23241;BME280;11789;53.482;9.862;2023-04-27T04:15:28;102060.19;;;2.71;100.00
23241;BME280;11789;53.482;9.862;2023-04-27T04:17:54;102064.66;;;2.75;100.00
23241;BME280;11789;53.482;9.862;2023-04-27T04:20:19;102063.47;;;2.68;100.00
23241;BME280;11789;53.482;9.862;2023-04-27T04:22:45;102060.91;;;2.68;100.00
23241;BME280;11789;53.482;9.862;2023-04-27T04:25:11;102066.91;;;2.69;100.00
23241;BME280;11789;53.482;9.862;2023-04-27T04:27:37;102067.13;;;2.73;100.00
23241;BME280;11789;53.482;9.862;2023-04-27T04:30:04;102062.53;;;2.66;100.00
23241;BME280;11789;53.482;9.862;2023-04-27T04:32:30;102062.94;;;2.74;100.00
23241;BME280;11789;53.482;9.862;2023-04-27T04:34:56;102063.13;;;2.78;100.00
23241;BME280;11789;53.482;9.862;2023-04-27T04:37:23;102070.78;;;2.78;100.00
23241;BME280;11789;53.482;9.862;2023-04-27T04:39:48;102066.72;;;2.82;100.00
23241;BME280;11789;53.482;9.862;2023-04-27T04:42:14;102074.44;;;2.83;100.00
23241;BME280;11789;53.482;9.862;2023-04-27T04:44:40;102079.00;;;2.89;100.00
23241;BME280;11789;53.482;9.862;2023-04-27T04:47:05;102077.47;;;2.93;100.00
23241;BME280;11789;53.482;9.862;2023-04-27T04:49:31;102076.88;;;2.98;100.00
23241;BME280;11789;53.482;9.862;2023-04-27T04:51:56;102081.41;;;3.04;100.00
23241;BME280;11789;53.482;9.862;2023-04-27T04:54:22;102086.97;;;3.13;100.00
23241;BME280;11789;53.482;9.862;2023-04-27T04:56:47;102086.75;;;3.08;100.00
23241;BME280;11789;53.482;9.862;2023-04-27T04:59:13;102095.16;;;3.06;100.00
23241;BME280;11789;53.482;9.862;2023-04-27T05:01:38;102100.28;;;3.06;100.00
23241;BME280;11789;53.482;9.862;2023-04-27T05:04:04;102100.28;;;3.06;100.00
23241;BME280;11789;53.482;9.862;2023-04-27T05:06:29;102104.41;;;3.04;100.00
23241;BME280;11789;53.482;9.862;2023-04-27T05:08:55;102108.81;;;3.06;100.00
23241;BME280;11789;53.482;9.862;2023-04-27T05:11:21;102104.00;;;3.12;100.00
23241;BME280;11789;53.482;9.862;2023-04-27T05:13:46;102113.00;;;3.22;100.00
23241;BME280;11789;53.482;9.862;2023-04-27T05:16:12;102105.13;;;3.35;100.00
23241;BME280;11789;53.482;9.862;2023-04-27T05:18:37;102100.97;;;3.37;100.00
23241;BME280;11789;53.482;9.862;2023-04-27T05:21:03;102105.50;;;3.43;100.00
23241;BME280;11789;53.482;9.862;2023-04-27T05:23:29;102099.78;;;3.49;100.00
23241;BME280;11789;53.482;9.862;2023-04-27T05:25:54;102099.34;;;3.57;100.00
23241;BME280;11789;53.482;9.862;2023-04-27T05:28:20;102097.75;;;3.59;99.54
23241;BME280;11789;53.482;9.862;2023-04-27T05:30:45;102105.94;;;3.70;98.24
23241;BME280;11789;53.482;9.862;2023-04-27T05:33:11;102098.56;;;3.76;98.21
23241;BME280;11789;53.482;9.862;2023-04-27T05:35:36;102100.63;;;3.85;97.94
23241;BME280;11789;53.482;9.862;2023-04-27T05:38:02;102101.34;;;4.00;97.13
23241;BME280;11789;53.482;9.862;2023-04-27T05:40:28;102103.84;;;3.99;95.46
23241;BME280;11789;53.482;9.862;2023-04-27T05:42:53;102103.84;;;3.99;95.98
23241;BME280;11789;53.482;9.862;2023-04-27T05:45:19;102100.94;;;4.10;95.82
23241;BME280;11789;53.482;9.862;2023-04-27T05:47:46;102101.31;;;4.18;95.17
23241;BME280;11789;53.482;9.862;2023-04-27T05:50:11;102101.03;;;4.12;95.39
23241;BME280;11789;53.482;9.862;2023-04-27T05:52:38;102097.53;;;4.10;95.75
23241;BME280;11789;53.482;9.862;2023-04-27T05:55:04;102099.59;;;4.36;95.32
23241;BME280;11789;53.482;9.862;2023-04-27T05:57:29;102104.09;;;4.61;93.72
23241;BME280;11789;53.482;9.862;2023-04-27T05:59:55;102108.09;;;4.76;93.37
23241;BME280;11789;53.482;9.862;2023-04-27T06:02:21;102112.75;;;4.84;93.46
23241;BME280;11789;53.482;9.862;2023-04-27T06:04:46;102112.75;;;4.84;93.45
23241;BME280;11789;53.482;9.862;2023-04-27T06:07:13;102111.50;;;4.95;92.82
23241;BME280;11789;53.482;9.862;2023-04-27T06:09:39;102122.34;;;5.09;91.99
23241;BME280;11789;53.482;9.862;2023-04-27T06:12:06;102123.78;;;5.03;90.51
23241;BME280;11789;53.482;9.862;2023-04-27T06:14:33;102125.00;;;4.91;90.71
23241;BME280;11789;53.482;9.862;2023-04-27T06:17:00;102122.63;;;4.96;91.04
23241;BME280;11789;53.482;9.862;2023-04-27T06:19:26;102120.28;;;5.01;91.11
23241;BME280;11789;53.482;9.862;2023-04-27T06:21:55;102123.84;;;5.04;90.68
23241;BME280;11789;53.482;9.862;2023-04-27T06:24:21;102119.03;;;5.12;90.05
23241;BME280;11789;53.482;9.862;2023-04-27T06:26:50;102116.06;;;5.22;90.20
23241;BME280;11789;53.482;9.862;2023-04-27T06:29:15;102120.75;;;5.32;90.13
23241;BME280;11789;53.482;9.862;2023-04-27T06:31:41;102118.66;;;5.44;89.99
23241;BME280;11789;53.482;9.862;2023-04-27T06:34:06;102114.87;;;5.57;89.92
23241;BME280;11789;53.482;9.862;2023-04-27T06:36:32;102116.09;;;5.65;89.55
23241;BME280;11789;53.482;9.862;2023-04-27T06:38:57;102120.38;;;5.66;87.63
23241;BME280;11789;53.482;9.862;2023-04-27T06:41:25;102118.81;;;5.70;86.97
23241;BME280;11789;53.482;9.862;2023-04-27T06:43:51;102122.13;;;5.67;86.57
23241;BME280;11789;53.482;9.862;2023-04-27T06:46:17;102121.56;;;5.75;86.70
23241;BME280;11789;53.482;9.862;2023-04-27T06:48:42;102121.69;;;5.78;86.20
23241;BME280;11789;53.482;9.862;2023-04-27T06:51:08;102124.19;;;5.76;85.67
23241;BME280;11789;53.482;9.862;2023-04-27T06:53:33;102121.84;;;5.82;85.29
23241;BME280;11789;53.482;9.862;2023-04-27T06:55:59;102122.13;;;5.88;85.77
23241;BME280;11789;53.482;9.862;2023-04-27T06:58:24;102118.13;;;5.95;85.32
23241;BME280;11789;53.482;9.862;2023-04-27T07:00:51;102109.91;;;6.04;85.71
23241;BME280;11789;53.482;9.862;2023-04-27T07:03:17;102101.47;;;6.08;83.62
23241;BME280;11789;53.482;9.862;2023-04-27T07:05:44;102096.00;;;6.21;84.27
23241;BME280;11789;53.482;9.862;2023-04-27T07:08:09;102106.59;;;6.30;82.71
23241;BME280;11789;53.482;9.862;2023-04-27T07:10:35;102104.37;;;6.39;81.29
23241;BME280;11789;53.482;9.862;2023-04-27T07:13:00;102114.91;;;6.47;80.63
23241;BME280;11789;53.482;9.862;2023-04-27T07:15:26;102112.38;;;6.48;78.71
23241;BME280;11789;53.482;9.862;2023-04-27T07:17:51;102114.81;;;6.44;78.12
23241;BME280;11789;53.482;9.862;2023-04-27T07:20:18;102125.88;;;6.43;78.89
23241;BME280;11789;53.482;9.862;2023-04-27T07:22:44;102133.28;;;6.58;79.78
23241;BME280;11789;53.482;9.862;2023-04-27T07:25:09;102141.94;;;6.60;78.05
23241;BME280;11789;53.482;9.862;2023-04-27T07:27:35;102140.62;;;6.71;78.46
23241;BME280;11789;53.482;9.862;2023-04-27T07:30:01;102141.09;;;6.85;79.28
23241;BME280;11789;53.482;9.862;2023-04-27T07:32:26;102144.84;;;6.94;78.30
23241;BME280;11789;53.482;9.862;2023-04-27T07:34:54;102142.00;;;7.11;77.91
23241;BME280;11789;53.482;9.862;2023-04-27T07:37:20;102145.13;;;7.27;77.62
23241;BME280;11789;53.482;9.862;2023-04-27T07:39:47;102141.16;;;7.37;77.43
23241;BME280;11789;53.482;9.862;2023-04-27T07:42:13;102152.72;;;7.50;77.20
23241;BME280;11789;53.482;9.862;2023-04-27T07:44:39;102150.09;;;7.48;77.27
23241;BME280;11789;53.482;9.862;2023-04-27T07:47:04;102147.12;;;7.36;77.17
23241;BME280;11789;53.482;9.862;2023-04-27T07:49:30;102154.94;;;7.39;77.85
23241;BME280;11789;53.482;9.862;2023-04-27T07:51:56;102157.94;;;7.26;77.61
23241;BME280;11789;53.482;9.862;2023-04-27T07:54:22;102154.69;;;7.06;78.16
23241;BME280;11789;53.482;9.862;2023-04-27T07:56:47;102157.50;;;6.88;78.45
23241;BME280;11789;53.482;9.862;2023-04-27T07:59:13;102156.28;;;6.79;78.93
23241;BME280;11789;53.482;9.862;2023-04-27T08:01:39;102157.12;;;6.78;78.24
23241;BME280;11789;53.482;9.862;2023-04-27T08:04:05;102154.91;;;6.88;78.58
23241;BME280;11789;53.482;9.862;2023-04-27T08:06:30;102152.69;;;7.23;77.39
23241;BME280;11789;53.482;9.862;2023-04-27T08:08:57;102156.41;;;7.58;76.18
23241;BME280;11789;53.482;9.862;2023-04-27T08:11:25;102157.19;;;7.83;72.33
23241;BME280;11789;53.482;9.862;2023-04-27T08:13:50;102146.84;;;8.10;72.03
23241;BME280;11789;53.482;9.862;2023-04-27T08:16:19;102145.84;;;8.33;71.92
23241;BME280;11789;53.482;9.862;2023-04-27T08:18:44;102141.06;;;8.17;71.58
23241;BME280;11789;53.482;9.862;2023-04-27T08:21:10;102147.78;;;7.83;70.52
23241;BME280;11789;53.482;9.862;2023-04-27T08:23:36;102138.94;;;8.03;71.59
23241;BME280;11789;53.482;9.862;2023-04-27T08:26:03;102134.78;;;8.07;72.12
23241;BME280;11789;53.482;9.862;2023-04-27T08:28:28;102144.66;;;8.22;71.51
23241;BME280;11789;53.482;9.862;2023-04-27T08:30:55;102147.19;;;8.49;69.13
23241;BME280;11789;53.482;9.862;2023-04-27T08:33:20;102141.44;;;8.57;67.24
23241;BME280;11789;53.482;9.862;2023-04-27T08:35:46;102141.47;;;8.59;65.73
23241;BME280;11789;53.482;9.862;2023-04-27T08:38:11;102131.81;;;8.83;66.82
23241;BME280;11789;53.482;9.862;2023-04-27T08:40:43;102129.31;;;9.20;65.28
23241;BME280;11789;53.482;9.862;2023-04-27T08:43:09;102130.28;;;9.23;62.08
23241;BME280;11789;53.482;9.862;2023-04-27T08:45:34;102127.12;;;9.36;60.64
23241;BME280;11789;53.482;9.862;2023-04-27T08:48:00;102137.09;;;9.57;57.17
23241;BME280;11789;53.482;9.862;2023-04-27T08:50:25;102133.47;;;9.85;58.71
23241;BME280;11789;53.482;9.862;2023-04-27T08:52:51;102124.09;;;9.91;59.29
23241;BME280;11789;53.482;9.862;2023-04-27T08:55:17;102124.38;;;9.64;59.67
23241;BME280;11789;53.482;9.862;2023-04-27T08:57:53;102121.25;;;9.42;60.58
23241;BME280;11789;53.482;9.862;2023-04-27T09:00:19;102113.06;;;9.24;61.08
23241;BME280;11789;53.482;9.862;2023-04-27T09:02:46;102117.84;;;9.08;60.64
23241;BME280;11789;53.482;9.862;2023-04-27T09:08:18;102120.81;;;8.57;58.85
23241;BME280;11789;53.482;9.862;2023-04-27T09:10:46;102123.84;;;8.44;60.83
23241;BME280;11789;53.482;9.862;2023-04-27T09:13:12;102120.38;;;8.42;62.44
23241;BME280;11789;53.482;9.862;2023-04-27T09:15:45;102122.66;;;8.33;63.57
23241;BME280;11789;53.482;9.862;2023-04-27T09:18:20;102120.69;;;8.54;62.85
23241;BME280;11789;53.482;9.862;2023-04-27T09:20:49;102123.12;;;8.80;61.84
23241;BME280;11789;53.482;9.862;2023-04-27T09:23:47;102122.34;;;8.82;60.70
23241;BME280;11789;53.482;9.862;2023-04-27T09:26:21;102118.25;;;9.24;61.75
23241;BME280;11789;53.482;9.862;2023-04-27T09:28:49;102123.78;;;9.77;58.85
23241;BME280;11789;53.482;9.862;2023-04-27T09:31:15;102115.50;;;9.90;60.62
23241;BME280;11789;53.482;9.862;2023-04-27T09:33:43;102117.81;;;10.19;57.74
23241;BME280;11789;53.482;9.862;2023-04-27T09:36:09;102108.22;;;10.54;55.81
23241;BME280;11789;53.482;9.862;2023-04-27T09:38:34;102113.72;;;10.28;53.57
23241;BME280;11789;53.482;9.862;2023-04-27T09:41:00;102119.25;;;9.67;53.17
23241;BME280;11789;53.482;9.862;2023-04-27T09:43:26;102124.75;;;9.44;55.04
23241;BME280;11789;53.482;9.862;2023-04-27T09:45:58;102122.81;;;9.35;55.05
23241;BME280;11789;53.482;9.862;2023-04-27T09:48:24;102120.06;;;9.28;55.76
23241;BME280;11789;53.482;9.862;2023-04-27T09:50:51;102118.16;;;9.21;56.10
23241;BME280;11789;53.482;9.862;2023-04-27T09:53:19;102117.63;;;9.34;56.39
23241;BME280;11789;53.482;9.862;2023-04-27T09:55:50;102116.91;;;9.40;56.65
23241;BME280;11789;53.482;9.862;2023-04-27T10:03:36;102104.34;;;9.93;56.35
23241;BME280;11789;53.482;9.862;2023-04-27T10:08:34;102100.63;;;10.21;53.46
23241;BME280;11789;53.482;9.862;2023-04-27T10:11:00;102100.97;;;10.34;55.17
23241;BME280;11789;53.482;9.862;2023-04-27T10:13:25;102102.62;;;10.32;55.45
23241;BME280;11789;53.482;9.862;2023-04-27T10:15:52;102107.78;;;10.32;53.84
23241;BME280;11789;53.482;9.862;2023-04-27T10:18:29;102109.25;;;10.21;54.19
23241;BME280;11789;53.482;9.862;2023-04-27T10:20:55;102102.91;;;10.05;54.40
23241;BME280;11789;53.482;9.862;2023-04-27T10:23:22;102108.72;;;9.97;54.85
23241;BME280;11789;53.482;9.862;2023-04-27T10:25:48;102108.75;;;9.98;54.98
23241;BME280;11789;53.482;9.862;2023-04-27T10:28:15;102104.75;;;10.11;56.42
23241;BME280;11789;53.482;9.862;2023-04-27T10:30:44;102105.81;;;10.21;56.24
23241;BME280;11789;53.482;9.862;2023-04-27T10:33:15;102112.31;;;10.03;54.76
23241;BME280;11789;53.482;9.862;2023-04-27T10:35:42;102107.84;;;9.95;55.96
23241;BME280;11789;53.482;9.862;2023-04-27T10:38:19;102108.28;;;9.77;56.66
23241;BME280;11789;53.482;9.862;2023-04-27T10:41:00;102118.50;;;9.72;58.37
23241;BME280;11789;53.482;9.862;2023-04-27T10:43:28;102119.25;;;9.67;58.18
23241;BME280;11789;53.482;9.862;2023-04-27T10:45:54;102120.44;;;9.81;58.00
23241;BME280;11789;53.482;9.862;2023-04-27T10:48:20;102122.69;;;9.66;59.04
23241;BME280;11789;53.482;9.862;2023-04-27T10:50:46;102120.56;;;9.49;59.38
23241;BME280;11789;53.482;9.862;2023-04-27T10:53:15;102128.31;;;9.49;59.88
23241;BME280;11789;53.482;9.862;2023-04-27T10:55:41;102120.91;;;9.63;59.30
23241;BME280;11789;53.482;9.862;2023-04-27T10:58:06;102120.22;;;9.72;58.20
23241;BME280;11789;53.482;9.862;2023-04-27T11:00:38;102127.00;;;9.67;57.61
23241;BME280;11789;53.482;9.862;2023-04-27T11:03:16;102117.66;;;9.72;58.98
23241;BME280;11789;53.482;9.862;2023-04-27T11:05:44;102124.72;;;9.79;59.05
23241;BME280;11789;53.482;9.862;2023-04-27T11:08:12;102118.16;;;9.57;58.77
23241;BME280;11789;53.482;9.862;2023-04-27T11:10:49;102122.03;;;9.38;60.12
23241;BME280;11789;53.482;9.862;2023-04-27T11:13:22;102113.34;;;9.34;61.76
23241;BME280;11789;53.482;9.862;2023-04-27T11:15:52;102114.44;;;9.44;62.41
23241;BME280;11789;53.482;9.862;2023-04-27T11:18:22;102119.84;;;9.55;62.28
23241;BME280;11789;53.482;9.862;2023-04-27T11:20:50;102115.56;;;9.55;60.31
23241;BME280;11789;53.482;9.862;2023-04-27T11:23:27;102112.97;;;9.55;60.88
23241;BME280;11789;53.482;9.862;2023-04-27T11:25:54;102116.88;;;9.76;60.70
23241;BME280;11789;53.482;9.862;2023-04-27T11:28:21;102106.47;;;9.73;59.74
23241;BME280;11789;53.482;9.862;2023-04-27T11:30:57;102110.63;;;9.66;59.59
23241;BME280;11789;53.482;9.862;2023-04-27T11:33:23;102110.63;;;9.66;58.17
23241;BME280;11789;53.482;9.862;2023-04-27T11:35:48;102114.41;;;9.80;58.50
23241;BME280;11789;53.482;9.862;2023-04-27T11:38:15;102118.94;;;9.91;57.63
23241;BME280;11789;53.482;9.862;2023-04-27T11:40:41;102112.31;;;10.03;57.23
23241;BME280;11789;53.482;9.862;2023-04-27T11:43:11;102114.00;;;10.01;56.61
23241;BME280;11789;53.482;9.862;2023-04-27T11:45:41;102115.06;;;10.11;58.69
23241;BME280;11789;53.482;9.862;2023-04-27T11:48:06;102114.41;;;10.20;58.58
23241;BME280;11789;53.482;9.862;2023-04-27T11:50:37;102113.94;;;10.39;57.39
23241;BME280;11789;53.482;9.862;2023-04-27T11:53:03;102100.44;;;10.52;56.06
23241;BME280;11789;53.482;9.862;2023-04-27T11:55:29;102105.78;;;10.61;56.24
23241;BME280;11789;53.482;9.862;2023-04-27T11:57:56;102105.22;;;10.78;56.54
23241;BME280;11789;53.482;9.862;2023-04-27T12:00:23;102103.22;;;10.63;55.27
23241;BME280;11789;53.482;9.862;2023-04-27T12:02:49;102109.03;;;10.51;56.02
23241;BME280;11789;53.482;9.862;2023-04-27T12:05:15;102097.44;;;10.31;57.41
23241;BME280;11789;53.482;9.862;2023-04-27T12:07:41;102104.94;;;10.20;58.68
23241;BME280;11789;53.482;9.862;2023-04-27T12:10:07;102109.19;;;10.18;59.12
23241;BME280;11789;53.482;9.862;2023-04-27T12:12:33;102106.69;;;10.21;59.37
23241;BME280;11789;53.482;9.862;2023-04-27T12:14:58;102111.72;;;10.15;58.73
23241;BME280;11789;53.482;9.862;2023-04-27T12:17:24;102101.25;;;10.09;58.93
23241;BME280;11789;53.482;9.862;2023-04-27T12:19:49;102112.47;;;10.09;59.97
23241;BME280;11789;53.482;9.862;2023-04-27T12:22:15;102109.03;;;10.10;58.73
23241;BME280;11789;53.482;9.862;2023-04-27T12:24:40;102115.06;;;10.09;58.95
23241;BME280;11789;53.482;9.862;2023-04-27T12:27:06;102111.28;;;9.95;57.89
23241;BME280;11789;53.482;9.862;2023-04-27T12:29:32;102118.81;;;9.84;57.99
23241;BME280;11789;53.482;9.862;2023-04-27T12:31:58;102115.41;;;9.87;59.41
23241;BME280;11789;53.482;9.862;2023-04-27T12:34:42;102118.06;;;9.90;59.40
23241;BME280;11789;53.482;9.862;2023-04-27T12:37:07;102117.97;;;9.85;59.16
23241;BME280;11789;53.482;9.862;2023-04-27T12:39:33;102120.63;;;9.88;59.19
23241;BME280;11789;53.482;9.862;2023-04-27T12:42:00;102116.28;;;9.87;59.66
23241;BME280;11789;53.482;9.862;2023-04-27T12:44:27;102118.91;;;9.89;60.92
23241;BME280;11789;53.482;9.862;2023-04-27T12:46:54;102118.94;;;9.91;60.69
23241;BME280;11789;53.482;9.862;2023-04-27T12:49:20;102130.38;;;10.02;61.03
23241;BME280;11789;53.482;9.862;2023-04-27T12:51:45;102121.87;;;10.07;60.20
23241;BME280;11789;53.482;9.862;2023-04-27T12:54:12;102118.44;;;10.08;59.75
23241;BME280;11789;53.482;9.862;2023-04-27T12:56:37;102124.41;;;10.04;59.29
23241;BME280;11789;53.482;9.862;2023-04-27T12:59:03;102125.09;;;9.97;57.38
23241;BME280;11789;53.482;9.862;2023-04-27T13:01:30;102122.25;;;9.85;58.43
23241;BME280;11789;53.482;9.862;2023-04-27T13:04:00;102127.09;;;9.70;59.29